Abbot Village, Maine
Current Conditions -  °F | °C
As of 3:53 PM on Tuesday 25 Nov 2014 (Local Time) from KBGR Reporting Station
Overcast Overcast  
Wind Chill: 11°   Ceiling: 15000
Heat Index: 11°   Visibility: 10mi
Dew Point:   Wind: 3mph
Humidity: 53%   Direction: 220°SW
Pressure: 29.8"   Gusts: NA
Location:  45.19°N, 69.45°W
Report Text: KBGR 252053Z 22003KT 10SM BKN150 OVC250 11/02 A2980 RMK AO2 SLP088 T01110017 53015
Loading
Personal Weather Stations






























Interactive Weather Map New forecast layout! Learn more

10-Day Weather Forecast

Advertisements
Track Severe Weather on mobile